Time;durP1;ratioP1;P1;durP2;ratioP2;P2;SDS_P1;SDS_P2;PMS_P1;PMS_P2;Temp;Humidity;BMP_temperature;BMP_pressure;BME280_temperature;BME280_humidity;BME280_pressure;Samples;Min_cycle;Max_cycle;Signal;HPM_P1;HPM_P2
2023/11/19 00:01:06;;;;;;;0.50;0.20;;;6.10;99.90;;;;;;5087781;28;20203;-62
2023/11/19 00:03:34;;;;;;;1.20;0.30;;;6.20;99.90;;;;;;5083193;28;20645;-62
2023/11/19 00:06:04;;;;;;;0.93;0.10;;;6.20;99.90;;;;;;5087360;28;20202;-62
2023/11/19 00:08:31;;;;;;;0.10;0.10;;;6.20;99.90;;;;;;5087709;28;20232;-63
2023/11/19 00:10:58;;;;;;;1.13;0.10;;;6.20;99.90;;;;;;5082491;28;20214;-62
2023/11/19 00:13:25;;;;;;;0.67;0.13;;;6.10;99.90;;;;;;5077016;28;20834;-62
2023/11/19 00:15:53;;;;;;;1.27;0.20;;;6.20;99.90;;;;;;5074733;28;20198;-61
2023/11/19 00:18:20;;;;;;;0.77;0.30;;;6.30;99.90;;;;;;5081393;28;20210;-61
2023/11/19 00:20:47;;;;;;;0.40;0.10;;;6.20;99.90;;;;;;5087685;28;20663;-61
2023/11/19 00:23:16;;;;;;;0.20;0.20;;;6.20;99.90;;;;;;5072423;28;20222;-61
2023/11/19 00:25:43;;;;;;;0.60;0.20;;;6.20;99.90;;;;;;5075158;28;20608;-62
2023/11/19 00:28:10;;;;;;;1.30;0.20;;;6.20;99.90;;;;;;5073896;28;20202;-62
2023/11/19 00:30:36;;;;;;;0.30;0.20;;;6.30;99.90;;;;;;5078917;28;20252;-61
2023/11/19 00:33:03;;;;;;;0.40;0.40;;;6.40;99.90;;;;;;5090861;28;20576;-62
2023/11/19 00:35:31;;;;;;;0.10;0.10;;;6.40;99.90;;;;;;5090656;28;20211;-62
2023/11/19 00:37:58;;;;;;;0.33;0.30;;;6.30;99.90;;;;;;5085040;28;20252;-62
2023/11/19 00:40:27;;;;;;;3.20;0.10;;;6.30;99.90;;;;;;5082726;28;20716;-63
2023/11/19 00:42:54;;;;;;;0.50;0.10;;;6.30;99.90;;;;;;5082398;28;20253;-62
2023/11/19 00:45:21;;;;;;;0.20;0.10;;;6.30;99.90;;;;;;5078897;28;20437;-61
2023/11/19 00:47:48;;;;;;;0.10;0.10;;;6.40;99.90;;;;;;5078900;28;20198;-63
2023/11/19 00:50:15;;;;;;;0.10;0.10;;;6.40;99.90;;;;;;5077534;28;20203;-61
2023/11/19 00:52:42;;;;;;;0.27;0.20;;;6.40;99.90;;;;;;5070654;28;20250;-61
2023/11/19 00:55:11;;;;;;;1.50;0.30;;;6.40;99.90;;;;;;5070430;28;20199;-61
2023/11/19 00:57:39;;;;;;;0.27;0.27;;;6.40;99.90;;;;;;5076431;28;20210;-62
2023/11/19 01:00:17;;;;;;;0.40;0.20;;;6.40;99.90;;;;;;5073997;28;20199;-62
2023/11/19 01:02:45;;;;;;;0.20;0.20;;;6.30;99.90;;;;;;5070594;28;20199;-62
2023/11/19 01:05:14;;;;;;;0.50;0.50;;;6.30;99.90;;;;;;5070329;28;20240;-63
2023/11/19 01:07:41;;;;;;;0.20;0.10;;;6.40;99.90;;;;;;5077887;28;20285;-61
2023/11/19 01:10:09;;;;;;;0.20;0.20;;;6.40;99.90;;;;;;5082298;28;20681;-62
2023/11/19 01:12:37;;;;;;;0.20;0.20;;;6.40;99.90;;;;;;5073060;28;20230;-62
2023/11/19 01:15:07;;;;;;;0.10;0.10;;;6.40;99.90;;;;;;5073730;28;20199;-64
2023/11/19 01:17:34;;;;;;;0.63;0.10;;;6.40;99.90;;;;;;5079446;28;20215;-62
2023/11/19 01:20:02;;;;;;;0.20;0.17;;;6.40;99.90;;;;;;5078190;28;20213;-62
2023/11/19 01:22:29;;;;;;;2.30;0.30;;;6.40;99.90;;;;;;5070932;28;20213;-61
2023/11/19 01:24:56;;;;;;;0.30;0.10;;;6.40;99.90;;;;;;5070286;28;20223;-61
2023/11/19 01:27:22;;;;;;;2.30;0.20;;;6.40;99.90;;;;;;5070323;28;20236;-61
2023/11/19 01:29:49;;;;;;;0.10;0.10;;;6.40;99.90;;;;;;5076647;28;20569;-62
2023/11/19 01:32:18;;;;;;;1.50;0.20;;;6.40;99.90;;;;;;5077807;28;20202;-62
2023/11/19 01:34:45;;;;;;;0.23;0.23;;;6.50;99.90;;;;;;5088805;28;20639;-62
2023/11/19 01:37:14;;;;;;;0.40;0.10;;;6.50;99.90;;;;;;5080031;28;20620;-61
2023/11/19 01:39:44;;;;;;;0.10;0.10;;;6.40;99.90;;;;;;5078202;28;20686;-62
2023/11/19 01:42:12;;;;;;;0.30;0.20;;;6.50;99.90;;;;;;5071246;28;20734;-62
2023/11/19 01:44:38;;;;;;;0.30;0.30;;;6.50;99.90;;;;;;5082713;28;20716;-62
2023/11/19 01:47:06;;;;;;;0.83;0.30;;;;;;;;;;5084012;28;20201;-62
2023/11/19 01:49:35;;;;;;;0.20;0.20;;;6.40;99.90;;;;;;5084830;28;20203;-62
2023/11/19 01:52:02;;;;;;;1.13;0.30;;;6.50;99.90;;;;;;5084312;28;20253;-62
2023/11/19 01:54:29;;;;;;;0.20;0.20;;;6.50;99.90;;;;;;5086301;28;20218;-63
2023/11/19 01:56:57;;;;;;;0.20;0.20;;;;;;;;;;5090027;28;20244;-62
2023/11/19 01:59:27;;;;;;;0.27;0.27;;;6.50;99.90;;;;;;5093772;28;20941;-62
2023/11/19 02:01:54;;;;;;;0.30;0.23;;;6.60;99.90;;;;;;5082939;28;20202;-61
2023/11/19 02:04:22;;;;;;;0.20;0.20;;;6.60;99.90;;;;;;5080064;28;20224;-62
2023/11/19 02:06:52;;;;;;;0.10;0.10;;;6.60;99.90;;;;;;5084588;28;20753;-62
2023/11/19 02:09:20;;;;;;;0.10;0.10;;;7.00;99.90;;;;;;5093941;28;20233;-62
2023/11/19 02:11:50;;;;;;;1.93;0.20;;;;;;;;;;5090368;28;20210;-62
2023/11/19 02:14:18;;;;;;;0.30;0.30;;;6.60;99.90;;;;;;5088402;28;20305;-62
2023/11/19 02:16:45;;;;;;;0.30;0.20;;;7.20;99.90;;;;;;5087272;28;20195;-63
2023/11/19 02:19:12;;;;;;;0.20;0.20;;;6.70;99.90;;;;;;5086704;28;20259;-61
2023/11/19 02:21:41;;;;;;;0.17;0.17;;;6.70;99.90;;;;;;5087442;28;20268;-61
2023/11/19 02:24:12;;;;;;;0.37;0.10;;;6.50;99.90;;;;;;5089178;28;20220;-62
2023/11/19 02:26:45;;;;;;;1.30;0.20;;;6.80;99.90;;;;;;5088151;28;20206;-63
2023/11/19 02:29:14;;;;;;;0.30;0.20;;;6.80;99.90;;;;;;5081509;28;20203;-61
2023/11/19 02:31:41;;;;;;;0.20;0.20;;;6.80;99.90;;;;;;5093231;28;20608;-61
2023/11/19 02:34:08;;;;;;;0.10;0.10;;;6.60;99.90;;;;;;5075927;28;20236;-61
2023/11/19 02:36:34;;;;;;;1.13;0.30;;;6.60;99.90;;;;;;5073957;28;20254;-62
2023/11/19 02:39:01;;;;;;;0.13;0.13;;;6.70;99.90;;;;;;5084178;28;20226;-62
2023/11/19 02:41:29;;;;;;;0.77;0.63;;;6.60;99.90;;;;;;5088520;28;20662;-62
2023/11/19 02:43:56;;;;;;;0.30;0.20;;;6.60;99.90;;;;;;5091266;28;20228;-62
2023/11/19 02:46:24;;;;;;;1.37;0.20;;;6.70;99.90;;;;;;5086438;28;20570;-62
2023/11/19 02:48:51;;;;;;;0.10;0.10;;;6.70;99.90;;;;;;5072028;28;20206;-62
2023/11/19 02:51:18;;;;;;;0.10;0.10;;;6.80;99.90;;;;;;5072501;28;20639;-62
2023/11/19 02:53:48;;;;;;;0.10;0.10;;;6.70;99.90;;;;;;5072513;28;20273;-62
2023/11/19 02:56:20;;;;;;;1.70;0.27;;;6.80;99.90;;;;;;5072054;28;20202;-61
2023/11/19 02:58:48;;;;;;;0.83;0.20;;;6.80;99.90;;;;;;5078581;28;20223;-62
2023/11/19 03:01:23;;;;;;;0.20;0.20;;;6.80;99.90;;;;;;5086791;28;20289;-61
2023/11/19 03:03:54;;;;;;;0.67;0.20;;;6.80;99.90;;;;;;5080737;28;20249;-62
2023/11/19 03:06:22;;;;;;;0.63;0.10;;;7.00;99.90;;;;;;5085949;28;20202;-62
2023/11/19 03:08:49;;;;;;;0.10;0.10;;;7.00;99.90;;;;;;5072471;28;20252;-62
2023/11/19 03:11:16;;;;;;;0.20;0.20;;;7.00;99.90;;;;;;5079086;28;20245;-62
2023/11/19 03:13:43;;;;;;;0.20;0.20;;;7.00;99.90;;;;;;5071934;28;20227;-62
2023/11/19 03:16:11;;;;;;;1.23;0.17;;;6.80;99.90;;;;;;5078836;28;20199;-63
2023/11/19 03:18:38;;;;;;;0.27;0.10;;;7.00;99.90;;;;;;5090118;28;20253;-61
2023/11/19 03:21:07;;;;;;;0.47;0.47;;;6.90;99.90;;;;;;5080195;28;20203;-62
2023/11/19 03:23:35;;;;;;;1.03;0.30;;;7.10;99.90;;;;;;5072050;28;20221;-62
2023/11/19 03:26:05;;;;;;;0.10;0.10;;;7.20;99.90;;;;;;5071357;28;20213;-62
2023/11/19 03:28:32;;;;;;;0.20;0.10;;;7.10;99.90;;;;;;5089696;28;20477;-62
2023/11/19 03:30:59;;;;;;;0.20;0.20;;;7.10;99.90;;;;;;5081062;28;20206;-62
2023/11/19 03:33:27;;;;;;;0.10;0.10;;;7.10;99.90;;;;;;5080113;28;20746;-62
2023/11/19 03:35:56;;;;;;;0.47;0.10;;;7.00;99.90;;;;;;5072728;28;20312;-63
2023/11/19 03:38:24;;;;;;;0.50;0.30;;;7.00;99.90;;;;;;5071519;28;20239;-62
2023/11/19 03:40:51;;;;;;;0.27;0.27;;;7.00;99.90;;;;;;5078788;28;20289;-62
2023/11/19 03:43:19;;;;;;;0.10;0.10;;;7.00;99.90;;;;;;5077794;28;20234;-63
2023/11/19 03:45:47;;;;;;;1.27;0.40;;;6.60;99.90;;;;;;5085376;28;20286;-62
2023/11/19 03:48:15;;;;;;;0.20;0.20;;;7.10;99.90;;;;;;5085263;28;20286;-62
2023/11/19 03:50:42;;;;;;;0.20;0.20;;;7.00;99.90;;;;;;5079088;28;20202;-63
2023/11/19 03:53:09;;;;;;;0.23;0.20;;;7.00;99.90;;;;;;5077536;28;20219;-62
2023/11/19 03:55:38;;;;;;;1.13;0.27;;;7.00;99.90;;;;;;5082762;28;20263;-62
2023/11/19 03:58:04;;;;;;;5.87;0.30;;;6.90;99.90;;;;;;5085841;28;20246;-64
2023/11/19 04:00:31;;;;;;;0.50;0.20;;;7.00;99.90;;;;;;5077518;28;20633;-62
2023/11/19 04:02:58;;;;;;;0.17;0.17;;;6.90;99.90;;;;;;5087012;28;20202;-62
2023/11/19 04:05:25;;;;;;;0.30;0.20;;;6.80;99.90;;;;;;5083811;28;20578;-62
2023/11/19 04:07:52;;;;;;;1.07;0.20;;;6.80;99.90;;;;;;5076800;28;20206;-62
2023/11/19 04:10:20;;;;;;;0.20;0.20;;;6.90;99.90;;;;;;5083815;28;20195;-62
2023/11/19 04:12:48;;;;;;;1.37;0.23;;;6.90;99.90;;;;;;5086257;28;20251;-62
2023/11/19 04:15:16;;;;;;;0.20;0.10;;;6.90;99.90;;;;;;5084624;28;20254;-62
2023/11/19 04:17:43;;;;;;;0.57;0.17;;;6.90;99.90;;;;;;5079310;28;20682;-62
2023/11/19 04:20:13;;;;;;;3.67;1.57;;;6.80;99.90;;;;;;5088200;28;20267;-62
2023/11/19 04:22:40;;;;;;;6.43;1.43;;;6.80;99.90;;;;;;5085036;28;20202;-62
2023/11/19 04:25:08;;;;;;;1.70;1.00;;;6.80;99.90;;;;;;5073305;28;20285;-62
2023/11/19 04:27:35;;;;;;;0.67;0.40;;;6.80;99.90;;;;;;5085356;28;20693;-63
2023/11/19 04:30:04;;;;;;;0.40;0.40;;;6.80;99.90;;;;;;5079756;28;20192;-62
2023/11/19 04:32:31;;;;;;;2.00;0.20;;;6.80;99.90;;;;;;5087309;28;20210;-62
2023/11/19 04:34:58;;;;;;;0.83;0.30;;;6.80;99.90;;;;;;5077656;28;20308;-62
2023/11/19 04:37:24;;;;;;;0.17;0.17;;;6.80;99.90;;;;;;5088335;28;20198;-62
2023/11/19 04:39:52;;;;;;;0.60;0.40;;;6.70;99.90;;;;;;5082261;28;20233;-62
2023/11/19 04:42:19;;;;;;;0.33;0.33;;;6.70;99.90;;;;;;5076224;28;21409;-62
2023/11/19 04:44:46;;;;;;;0.63;0.57;;;;;;;;;;5086019;28;20275;-62
2023/11/19 04:47:15;;;;;;;0.30;0.30;;;6.70;99.90;;;;;;5081429;28;20264;-62
2023/11/19 04:49:43;;;;;;;2.73;0.80;;;6.80;99.90;;;;;;5071163;28;20636;-62
2023/11/19 04:52:11;;;;;;;2.80;1.33;;;6.70;99.90;;;;;;5080508;28;20203;-62
2023/11/19 04:54:43;;;;;;;2.60;1.47;;;6.70;99.90;;;;;;5087587;28;20260;-62
2023/11/19 04:57:10;;;;;;;4.60;0.77;;;6.80;99.90;;;;;;5085404;28;20237;-62
2023/11/19 04:59:37;;;;;;;0.43;0.43;;;6.70;99.90;;;;;;5078458;28;20731;-62
2023/11/19 05:02:04;;;;;;;0.97;0.30;;;6.70;99.90;;;;;;5076744;28;20241;-62
2023/11/19 05:04:33;;;;;;;0.20;0.20;;;6.60;99.90;;;;;;5079544;28;20275;-63
2023/11/19 05:07:00;;;;;;;0.43;0.43;;;6.60;99.90;;;;;;5077107;28;20199;-62
2023/11/19 05:09:27;;;;;;;1.47;0.37;;;6.70;99.90;;;;;;5077524;28;20201;-62
2023/11/19 05:11:54;;;;;;;1.10;0.60;;;6.70;99.90;;;;;;5070911;28;20204;-64
2023/11/19 05:14:21;;;;;;;0.40;0.40;;;6.70;99.90;;;;;;5074880;28;20291;-62
2023/11/19 05:16:48;;;;;;;0.87;0.33;;;6.70;99.90;;;;;;5072805;28;20208;-61
2023/11/19 05:19:15;;;;;;;0.53;0.50;;;6.60;99.90;;;;;;5078370;28;20222;-62
2023/11/19 05:21:44;;;;;;;0.60;0.60;;;6.60;99.90;;;;;;5082523;28;20322;-62
2023/11/19 05:24:12;;;;;;;0.30;0.30;;;6.70;99.90;;;;;;5082110;28;20719;-62
2023/11/19 05:26:40;;;;;;;0.20;0.20;;;6.60;99.90;;;;;;5074224;28;20202;-61
2023/11/19 05:29:07;;;;;;;1.53;0.40;;;6.70;99.90;;;;;;5079338;28;20689;-62
2023/11/19 05:31:35;;;;;;;0.43;0.30;;;6.70;99.90;;;;;;5078647;28;20207;-61
2023/11/19 05:34:02;;;;;;;0.63;0.20;;;6.70;99.90;;;;;;5081132;28;20233;-62
2023/11/19 05:36:29;;;;;;;0.20;0.20;;;6.70;99.90;;;;;;5080139;28;20616;-61
2023/11/19 05:38:58;;;;;;;0.53;0.30;;;6.80;99.90;;;;;;5076233;28;20326;-62
2023/11/19 05:41:25;;;;;;;0.50;0.50;;;6.70;99.90;;;;;;5074275;28;20206;-62
2023/11/19 05:43:52;;;;;;;0.33;0.30;;;6.70;99.90;;;;;;5075016;28;20224;-62
2023/11/19 05:46:19;;;;;;;0.30;0.30;;;6.70;99.90;;;;;;5078830;28;20252;-61
2023/11/19 05:48:46;;;;;;;0.33;0.33;;;6.70;99.90;;;;;;5079190;28;20194;-62
2023/11/19 05:51:14;;;;;;;0.67;0.30;;;6.80;99.90;;;;;;5078197;28;20206;-61
2023/11/19 05:53:41;;;;;;;1.20;0.47;;;6.90;99.90;;;;;;5084807;28;20220;-62
2023/11/19 05:56:10;;;;;;;1.13;0.67;;;6.80;99.90;;;;;;5079138;28;20202;-62
2023/11/19 05:58:37;;;;;;;0.50;0.30;;;6.80;99.90;;;;;;5071622;28;20674;-62
2023/11/19 06:01:07;;;;;;;1.70;0.87;;;6.70;99.90;;;;;;5073037;28;20225;-61
2023/11/19 06:03:34;;;;;;;0.53;0.53;;;6.80;99.90;;;;;;5070627;28;20319;-62
2023/11/19 06:06:01;;;;;;;1.33;0.40;;;6.70;99.90;;;;;;5076838;28;20198;-62
2023/11/19 06:08:28;;;;;;;0.60;0.60;;;6.90;99.90;;;;;;5074135;28;20245;-61
2023/11/19 06:10:54;;;;;;;0.47;0.10;;;6.90;99.90;;;;;;5072918;28;20293;-62
2023/11/19 06:13:23;;;;;;;0.30;0.20;;;6.80;99.90;;;;;;5069369;28;20266;-62
2023/11/19 06:15:51;;;;;;;1.07;0.30;;;6.80;99.90;;;;;;5071240;28;20206;-62
2023/11/19 06:18:19;;;;;;;0.70;0.70;;;6.80;99.90;;;;;;5073840;28;20199;-62
2023/11/19 06:20:46;;;;;;;1.63;0.93;;;7.60;99.90;;;;;;5075585;28;20363;-61
2023/11/19 06:23:14;;;;;;;0.50;0.50;;;6.70;99.90;;;;;;5075491;28;21526;-62
2023/11/19 06:25:41;;;;;;;0.40;0.40;;;6.80;99.90;;;;;;5071499;28;20255;-64
2023/11/19 06:28:08;;;;;;;0.43;0.43;;;7.00;99.90;;;;;;5074275;28;20206;-62
2023/11/19 06:30:36;;;;;;;0.60;0.60;;;6.70;99.90;;;;;;5072416;28;20198;-62
2023/11/19 06:33:04;;;;;;;1.60;1.50;;;6.70;99.90;;;;;;5078551;28;20785;-62
2023/11/19 06:35:36;;;;;;;1.77;1.67;;;6.70;99.90;;;;;;5076860;28;20240;-63
2023/11/19 06:38:04;;;;;;;0.80;0.80;;;6.60;99.90;;;;;;5074654;28;20213;-61
2023/11/19 06:40:31;;;;;;;0.40;0.40;;;6.60;99.90;;;;;;5080252;28;20218;-61
2023/11/19 06:42:58;;;;;;;0.90;0.83;;;6.70;99.90;;;;;;5072394;28;20658;-62
2023/11/19 06:45:25;;;;;;;0.43;0.43;;;6.70;99.90;;;;;;5072977;28;20972;-63
2023/11/19 06:47:53;;;;;;;0.83;0.83;;;6.80;99.90;;;;;;5072226;28;20283;-62
2023/11/19 06:50:20;;;;;;;1.47;1.37;;;6.80;99.90;;;;;;5071643;28;20263;-61
2023/11/19 06:52:48;;;;;;;1.40;1.30;;;6.70;99.90;;;;;;5081391;28;20224;-63
2023/11/19 06:55:15;;;;;;;0.87;0.87;;;6.70;99.90;;;;;;5080382;28;20286;-61
2023/11/19 06:57:42;;;;;;;1.00;1.00;;;6.70;99.90;;;;;;5079595;28;20277;-61
2023/11/19 07:00:11;;;;;;;0.70;0.70;;;6.70;99.90;;;;;;5070504;28;20215;-62
2023/11/19 07:02:38;;;;;;;0.80;0.80;;;6.70;99.90;;;;;;5074184;28;20716;-62
2023/11/19 07:05:08;;;;;;;1.33;1.20;;;6.70;99.90;;;;;;5072356;28;20315;-63
2023/11/19 07:07:35;;;;;;;2.47;0.63;;;6.70;99.90;;;;;;5071126;28;20255;-62
2023/11/19 07:10:04;;;;;;;1.03;0.77;;;6.80;99.90;;;;;;5075181;28;20213;-62
2023/11/19 07:12:31;;;;;;;0.70;0.70;;;6.70;99.90;;;;;;5073627;28;20662;-61
2023/11/19 07:14:58;;;;;;;2.00;0.60;;;6.70;99.90;;;;;;5072856;28;20248;-62
2023/11/19 07:17:25;;;;;;;0.83;0.70;;;6.90;99.90;;;;;;5072136;28;20260;-62
2023/11/19 07:19:52;;;;;;;1.33;1.20;;;6.70;99.90;;;;;;5072559;28;20219;-62
2023/11/19 07:22:20;;;;;;;0.60;0.60;;;6.70;99.90;;;;;;5072748;28;20210;-61
2023/11/19 07:24:47;;;;;;;0.63;0.37;;;6.80;99.90;;;;;;5072423;28;20268;-61
2023/11/19 07:27:15;;;;;;;1.60;0.50;;;6.80;99.90;;;;;;5073438;28;20281;-62
2023/11/19 07:29:44;;;;;;;0.50;0.50;;;6.80;99.90;;;;;;5080112;28;20284;-62
2023/11/19 07:32:11;;;;;;;0.93;0.40;;;6.80;99.90;;;;;;5072327;28;20265;-62
2023/11/19 07:34:38;;;;;;;2.10;0.83;;;6.70;99.90;;;;;;5072257;28;20237;-62
2023/11/19 07:37:05;;;;;;;0.50;0.33;;;6.80;99.90;;;;;;5071942;28;20203;-61
2023/11/19 07:39:35;;;;;;;0.57;0.57;;;6.80;99.90;;;;;;5073903;28;20277;-61
2023/11/19 07:42:02;;;;;;;0.53;0.53;;;6.80;99.90;;;;;;5076342;28;20218;-63
2023/11/19 07:44:29;;;;;;;1.27;0.83;;;6.80;99.90;;;;;;5070043;28;20218;-62
2023/11/19 07:46:55;;;;;;;1.03;0.63;;;6.80;99.90;;;;;;5071894;28;20211;-62
2023/11/19 07:49:22;;;;;;;1.10;0.40;;;6.80;99.90;;;;;;5071764;28;20199;-61
2023/11/19 07:51:49;;;;;;;1.23;0.70;;;6.80;99.90;;;;;;5081514;28;20244;-61
2023/11/19 07:54:16;;;;;;;0.60;0.60;;;6.90;99.90;;;;;;5079988;28;20214;-62
2023/11/19 07:56:45;;;;;;;0.60;0.60;;;6.90;99.90;;;;;;5071467;28;20670;-61
2023/11/19 07:59:12;;;;;;;0.50;0.50;;;6.90;99.90;;;;;;5084027;28;20267;-62
2023/11/19 08:01:38;;;;;;;0.90;0.67;;;7.00;99.90;;;;;;5080639;28;20222;-62
2023/11/19 08:04:06;;;;;;;0.83;0.70;;;7.00;99.90;;;;;;5076966;28;20275;-61
2023/11/19 08:06:34;;;;;;;0.60;0.60;;;6.90;99.90;;;;;;5072405;28;20194;-62
2023/11/19 08:09:01;;;;;;;1.37;1.17;;;7.00;99.90;;;;;;5071769;28;20206;-62
2023/11/19 08:11:28;;;;;;;0.70;0.70;;;7.10;99.90;;;;;;5077195;28;20226;-63
2023/11/19 08:13:57;;;;;;;3.50;1.93;;;7.10;99.90;;;;;;5073732;28;20287;-62
2023/11/19 08:16:23;;;;;;;1.80;1.37;;;7.10;99.90;;;;;;5071469;28;20203;-61
2023/11/19 08:18:50;;;;;;;0.93;0.93;;;7.40;99.90;;;;;;5071408;28;20207;-63
2023/11/19 08:21:17;;;;;;;1.50;1.07;;;7.40;99.90;;;;;;5075197;28;20218;-62
2023/11/19 08:23:44;;;;;;;1.23;0.90;;;7.50;99.90;;;;;;5070640;28;20292;-61
2023/11/19 08:26:11;;;;;;;1.17;1.13;;;7.60;99.90;;;;;;5071056;28;20203;-61
2023/11/19 08:28:38;;;;;;;1.30;1.30;;;7.60;99.90;;;;;;5083473;28;20202;-61
2023/11/19 08:31:07;;;;;;;0.70;0.70;;;7.60;99.90;;;;;;5084675;28;20206;-62
2023/11/19 08:33:34;;;;;;;1.57;0.87;;;7.70;99.90;;;;;;5083086;28;20268;-62
2023/11/19 08:36:03;;;;;;;0.77;0.60;;;7.70;99.90;;;;;;5081042;28;20434;-64
2023/11/19 08:38:31;;;;;;;1.77;0.60;;;7.70;99.90;;;;;;5089794;28;20209;-65
2023/11/19 08:40:59;;;;;;;0.70;0.70;;;7.60;99.90;;;;;;5083500;28;20222;-64
2023/11/19 08:43:26;;;;;;;1.23;0.80;;;7.60;99.90;;;;;;5084023;28;20318;-65
2023/11/19 08:45:53;;;;;;;0.50;0.50;;;7.60;99.90;;;;;;5090101;28;20206;-63
2023/11/19 08:48:22;;;;;;;1.67;0.70;;;7.70;99.90;;;;;;5083524;28;20198;-64
2023/11/19 08:50:49;;;;;;;1.33;0.80;;;7.80;99.90;;;;;;5082283;28;20896;-64
2023/11/19 08:53:16;;;;;;;1.07;1.03;;;7.90;99.90;;;;;;5089933;28;20226;-62
2023/11/19 08:55:43;;;;;;;0.90;0.90;;;8.00;99.90;;;;;;5089485;28;20638;-63
2023/11/19 08:58:10;;;;;;;0.97;0.97;;;8.00;99.90;;;;;;5090989;28;20203;-63
2023/11/19 09:00:37;;;;;;;0.93;0.93;;;8.10;99.90;;;;;;5088331;28;20291;-65
2023/11/19 09:03:04;;;;;;;1.73;1.63;;;8.20;99.90;;;;;;5092830;28;20705;-63
2023/11/19 09:05:32;;;;;;;2.50;1.83;;;8.40;99.90;;;;;;5093781;28;20248;-63
2023/11/19 09:07:59;;;;;;;1.87;1.67;;;8.50;99.90;;;;;;5092270;28;20272;-63
2023/11/19 09:10:26;;;;;;;1.63;1.53;;;8.70;99.90;;;;;;5082277;28;20662;-63
2023/11/19 09:12:53;;;;;;;2.23;2.00;;;8.80;99.90;;;;;;5086722;28;20209;-62
2023/11/19 09:15:20;;;;;;;2.40;2.30;;;8.90;99.90;;;;;;5082029;28;20200;-62
2023/11/19 09:17:47;;;;;;;2.70;1.87;;;9.00;99.90;;;;;;5088985;28;20727;-62
2023/11/19 09:20:15;;;;;;;4.13;2.43;;;9.00;99.90;;;;;;5084133;28;20198;-62
2023/11/19 09:22:43;;;;;;;1.60;1.50;;;9.10;99.90;;;;;;5084029;28;20636;-63
2023/11/19 09:25:10;;;;;;;1.40;1.40;;;9.10;99.90;;;;;;5087898;28;20252;-63
2023/11/19 09:27:37;;;;;;;2.63;0.70;;;9.20;99.90;;;;;;5083443;28;20196;-62
2023/11/19 09:30:05;;;;;;;1.40;0.80;;;9.10;99.90;;;;;;5081522;28;20257;-62
2023/11/19 09:32:32;;;;;;;0.60;0.60;;;9.20;99.90;;;;;;5092135;28;20194;-62
2023/11/19 09:35:00;;;;;;;0.70;0.70;;;9.20;99.90;;;;;;5089522;28;20607;-62
2023/11/19 09:37:27;;;;;;;2.00;0.90;;;9.30;99.90;;;;;;5087302;28;20210;-62
2023/11/19 09:39:56;;;;;;;1.90;0.60;;;9.40;99.90;;;;;;5093292;28;20637;-62
2023/11/19 09:42:25;;;;;;;0.87;0.70;;;9.50;99.90;;;;;;5087910;28;20222;-62
2023/11/19 09:44:53;;;;;;;1.07;0.60;;;9.50;99.90;;;;;;5084152;28;20232;-62
2023/11/19 09:47:21;;;;;;;0.60;0.60;;;9.60;99.90;;;;;;5093032;28;20255;-62
2023/11/19 09:49:48;;;;;;;0.83;0.50;;;9.60;99.90;;;;;;5093332;28;20238;-62
2023/11/19 09:52:15;;;;;;;0.90;0.57;;;9.60;99.90;;;;;;5084670;28;20194;-62
2023/11/19 09:54:42;;;;;;;0.60;0.60;;;9.60;99.90;;;;;;5083867;28;20219;-62
2023/11/19 09:57:12;;;;;;;0.87;0.60;;;9.60;99.90;;;;;;5089599;28;20206;-62
2023/11/19 09:59:40;;;;;;;1.07;0.77;;;9.50;99.90;;;;;;5088784;28;20246;-62
2023/11/19 10:02:08;;;;;;;0.87;0.80;;;9.50;99.90;;;;;;5089697;28;20219;-62
2023/11/19 10:04:37;;;;;;;0.60;0.60;;;9.50;99.90;;;;;;5090526;28;20222;-62
2023/11/19 10:07:04;;;;;;;0.80;0.80;;;9.50;99.90;;;;;;5091262;28;20316;-62
2023/11/19 10:09:31;;;;;;;0.67;0.67;;;9.50;99.90;;;;;;5093174;28;20558;-62
2023/11/19 10:11:58;;;;;;;0.60;0.60;;;9.50;99.90;;;;;;5091827;28;20194;-62
2023/11/19 10:14:27;;;;;;;0.63;0.63;;;9.50;99.90;;;;;;5085141;28;20216;-62
2023/11/19 10:16:56;;;;;;;1.63;0.77;;;9.50;99.90;;;;;;5080507;28;20205;-62
2023/11/19 10:19:23;;;;;;;1.00;1.00;;;9.50;99.90;;;;;;5087198;28;20301;-62
2023/11/19 10:21:49;;;;;;;0.40;0.40;;;9.50;99.90;;;;;;5091877;28;20238;-62
2023/11/19 10:24:16;;;;;;;0.67;0.67;;;9.50;99.90;;;;;;5079426;28;20222;-62
2023/11/19 10:26:43;;;;;;;0.60;0.60;;;9.60;99.90;;;;;;5085488;28;20719;-62
2023/11/19 10:29:13;;;;;;;0.87;0.80;;;9.70;99.90;;;;;;5092428;28;20286;-62
2023/11/19 10:31:42;;;;;;;0.70;0.70;;;9.70;99.90;;;;;;5088196;28;20199;-62
2023/11/19 10:34:26;;;;;;;1.10;1.00;;;9.90;99.90;;;;;;5085349;28;20261;-62
2023/11/19 10:36:53;;;;;;;0.70;0.70;;;9.80;99.90;;;;;;5082826;28;20287;-63
2023/11/19 10:39:20;;;;;;;1.93;0.77;;;9.70;99.90;;;;;;5092555;28;20267;-62
2023/11/19 10:41:48;;;;;;;1.23;0.70;;;9.60;99.90;;;;;;5092119;28;20307;-62
2023/11/19 10:44:33;;;;;;;1.37;0.80;;;9.60;99.90;;;;;;5086164;28;20610;-62
2023/11/19 10:47:02;;;;;;;0.97;0.97;;;9.60;99.90;;;;;;5088830;28;20201;-62
2023/11/19 10:49:29;;;;;;;0.80;0.80;;;9.60;99.90;;;;;;5092054;28;20308;-62
2023/11/19 10:51:58;;;;;;;0.57;0.57;;;9.60;99.90;;;;;;5077489;28;20655;-62
2023/11/19 10:54:26;;;;;;;1.97;1.33;;;9.80;99.90;;;;;;5087433;28;20255;-62
2023/11/19 10:56:58;;;;;;;0.80;0.73;;;9.90;99.90;;;;;;5090085;28;20207;-62
2023/11/19 10:59:26;;;;;;;0.83;0.80;;;9.90;99.90;;;;;;5092058;28;20203;-62
2023/11/19 11:01:55;;;;;;;0.90;0.90;;;9.80;99.90;;;;;;5091659;28;20225;-62
2023/11/19 11:04:27;;;;;;;0.50;0.50;;;9.80;99.90;;;;;;5077315;28;20310;-62
2023/11/19 11:06:58;;;;;;;0.60;0.60;;;9.80;99.90;;;;;;5087350;28;20235;-62
2023/11/19 11:09:27;;;;;;;0.60;0.60;;;9.90;99.90;;;;;;5085470;28;20198;-62
2023/11/19 11:11:57;;;;;;;2.30;0.80;;;10.10;99.90;;;;;;5088933;28;20723;-62
2023/11/19 11:14:26;;;;;;;0.53;0.53;;;10.10;99.90;;;;;;5085337;28;20219;-62
2023/11/19 11:16:54;;;;;;;0.90;0.90;;;10.10;99.90;;;;;;5088237;28;20199;-62
2023/11/19 11:19:22;;;;;;;0.60;0.50;;;10.00;99.90;;;;;;5091397;28;20199;-62
2023/11/19 11:21:55;;;;;;;0.93;0.90;;;9.90;99.90;;;;;;5083891;28;20307;-62
2023/11/19 11:24:41;;;;;;;0.50;0.50;;;9.80;99.90;;;;;;5082253;28;20313;-62
2023/11/19 11:27:36;;;;;;;1.93;1.33;;;9.80;99.90;;;;;;5089000;28;20200;-62
2023/11/19 11:30:14;;;;;;;0.40;0.40;;;9.80;99.90;;;;;;5091382;28;20199;-63
2023/11/19 11:32:49;;;;;;;0.70;0.70;;;9.80;99.90;;;;;;5081855;28;20195;-62
2023/11/19 11:35:31;;;;;;;1.17;0.87;;;10.00;99.90;;;;;;5080627;28;20211;-62
2023/11/19 11:38:05;;;;;;;0.70;0.70;;;9.90;99.90;;;;;;5081177;28;20227;-62
2023/11/19 11:40:32;;;;;;;0.70;0.70;;;9.90;99.90;;;;;;5091240;28;20195;-62
2023/11/19 11:42:59;;;;;;;2.33;0.80;;;10.50;99.90;;;;;;5086856;28;20227;-62
2023/11/19 11:45:42;;;;;;;0.60;0.60;;;9.80;99.90;;;;;;5080854;28;20287;-62
2023/11/19 11:48:16;;;;;;;0.80;0.80;;;9.70;99.90;;;;;;5089240;28;20279;-62
2023/11/19 11:50:51;;;;;;;0.47;0.47;;;9.80;99.90;;;;;;5086439;28;20224;-62
2023/11/19 11:53:22;;;;;;;1.60;0.80;;;9.80;99.90;;;;;;5079209;28;20214;-62
2023/11/19 11:56:02;;;;;;;0.60;0.60;;;9.80;99.90;;;;;;5084026;28;20294;-62
2023/11/19 11:58:34;;;;;;;0.80;0.80;;;9.80;99.90;;;;;;5084617;28;20242;-62
2023/11/19 12:01:05;;;;;;;0.50;0.50;;;9.90;99.90;;;;;;5084453;28;20250;-62
2023/11/19 12:03:32;;;;;;;0.53;0.53;;;10.00;99.90;;;;;;5083329;28;20227;-62
2023/11/19 12:06:00;;;;;;;1.90;0.77;;;10.30;99.90;;;;;;5083586;28;20203;-62
2023/11/19 12:08:31;;;;;;;1.40;1.30;;;10.20;99.90;;;;;;5090580;28;20290;-62
2023/11/19 12:10:59;;;;;;;1.17;1.10;;;10.30;99.90;;;;;;5090603;28;20229;-62
2023/11/19 12:13:45;;;;;;;0.50;0.50;;;10.40;99.90;;;;;;5078277;28;20226;-62
2023/11/19 12:16:12;;;;;;;1.13;0.90;;;10.50;99.90;;;;;;5085265;28;20698;-62
2023/11/19 12:18:42;;;;;;;2.43;0.70;;;10.70;99.90;;;;;;5086027;28;20286;-62
2023/11/19 12:21:13;;;;;;;0.70;0.70;;;10.80;99.90;;;;;;5089635;28;20199;-62
2023/11/19 12:23:50;;;;;;;0.90;0.90;;;10.80;99.90;;;;;;5079742;28;20587;-62
2023/11/19 12:26:36;;;;;;;0.90;0.90;;;10.90;99.90;;;;;;5085177;28;20216;-62
2023/11/19 12:29:07;;;;;;;0.60;0.60;;;10.90;99.90;;;;;;5089772;28;20236;-62
2023/11/19 12:31:38;;;;;;;1.00;0.77;;;11.00;99.90;;;;;;5090565;28;20231;-62
2023/11/19 12:34:11;;;;;;;1.37;1.37;;;11.10;99.90;;;;;;5083646;28;20235;-63
2023/11/19 12:36:42;;;;;;;1.70;1.60;;;11.10;99.90;;;;;;5082223;28;20658;-62
2023/11/19 12:39:12;;;;;;;1.03;0.70;;;11.10;99.90;;;;;;5090267;28;20242;-62
2023/11/19 12:41:53;;;;;;;1.07;0.80;;;11.10;99.90;;;;;;5091105;28;20272;-64
2023/11/19 12:44:20;;;;;;;0.60;0.60;;;11.00;99.90;;;;;;5081400;28;20266;-62
2023/11/19 12:46:47;;;;;;;0.83;0.70;;;10.90;99.90;;;;;;5088038;28;20662;-62
2023/11/19 12:49:14;;;;;;;0.50;0.50;;;10.80;99.90;;;;;;5090193;28;20256;-62
2023/11/19 12:51:41;;;;;;;1.37;0.40;;;10.80;99.90;;;;;;5083795;28;20194;-62
2023/11/19 12:54:08;;;;;;;0.80;0.63;;;10.60;99.90;;;;;;5082305;28;20265;-62
2023/11/19 12:56:41;;;;;;;0.73;0.73;;;10.60;99.90;;;;;;5087920;28;20276;-62
2023/11/19 12:59:12;;;;;;;0.63;0.63;;;10.50;99.90;;;;;;5089996;28;20202;-62
2023/11/19 13:01:41;;;;;;;0.90;0.90;;;10.50;99.90;;;;;;5089785;28;20730;-63
2023/11/19 13:04:18;;;;;;;1.70;0.77;;;10.50;99.90;;;;;;5084971;28;20216;-62